Wrangell, AK (99929)

4:00 PM AKDT on September 16, 2014 (GMT -0800)
Wrangell | Change Station
CLOSE
Current Station
Airport
Location: Wrangell,
Elevation: 43 ft
Nearby Weather Stations

Elev 43 ft 56.48 °N, 132.37 °W | Updated 4 minutes ago

Mostly Cloudy
Mostly Cloudy
55 °F
Feels Like 55 °F
N
0
Wind Variable Wind from North

Today
High -- | Low -- °F
--% Chance of Precip.
Yesterday
High -- | Low -- °F
Precip. -- in
6:23 AM 7:04 PM
Last Quarter, 41% visible
Pressure 29.87 in
Visibility 10.0 miles
Clouds Mostly Cloudy 4500 ft
Mostly Cloudy 6000 ft
Dew Point 50 °F
Humidity 82%
Rainfall 0.00 in
Snow Depth 0 in , 0 in , 0 in
UV 1 out of 12
Pollen Not available.
Air Quality Not available.
Flu Activity Not available.
METAR PAWG 162356Z 00000KT 10SM BKN045 BKN060 13/10 A2987 RMK AO1 WEA:NONE MJ 10140 20090 401400080 57010

More Conditions Fewer Conditions

Pressure 29.87 in
Visibility 10.0 miles
Clouds Mostly Cloudy 4500 ft
Mostly Cloudy 6000 ft
Dew Point 50 °F
Humidity 82%
Rainfall 0.00 in
Snow Depth 0 in , 0 in , 0 in
UV 1 out of 12
Pollen Not available.
Air Quality Not available.
Flu Activity Not available.
METAR PAWG 162356Z 00000KT 10SM BKN045 BKN060 13/10 A2987 RMK AO1 WEA:NONE MJ 10140 20090 401400080 57010

More Conditions Fewer Conditions

10-Day Weather Forecast

Almanac

Astronomy

Sep. 16, 2014 Rise Set
Actual Time 6:23 AM AKDT 7:04 PM AKDT
Civil Twilight 5:45 AM AKDT 7:42 PM AKDT
Nautical Twilight 4:59 AM AKDT 8:27 PM AKDT
Astronomical Twilight 4:08 AM AKDT 9:17 PM AKDT
Moon 11:42 PM AKDT (9/16) 3:22 PM AKDT (9/16)
Length of Visible Light 13h 57m
Length of Day
12h 41m
Tomorrow will be 4m 42s shorter.
Last Quarter, 41% of the Moon is Illuminated
Today
Last Quarter
Sep 24
New
Oct 1
First Quarter
Oct 8
Full
Oct 15
Last Quarter

Today's Extremes

State Highs State Lows

Community

WunderPhotos

Upload Photos

1,753,919 photos uploaded!

Nearby

Snow Depth

Station Depth Elevation
Upper Tsaina River 0 in 1750 ft
Little Chena Ridge 0 in 2000 ft
Grouse Creek Divide 0 in 700 ft
Nuka Glacier 123 in 1250 ft
Susitna Valley High 1 in 375 ft

Earthquake Activity

City Distance Mag. Time & Date
No recent earthquake activity has been reported nearby.
Minimum magnitude displayed is 2.5.

Coastal Water Temperatures

Place Temperature
No Stations Reporting

Nearby Weather Stations